sensor_id;sensor_type;location;lat;lon;timestamp;P1;durP1;ratioP1;P2;durP2;ratioP2
9821;SDS011;4950;46.042;14.472;2023-04-24T00:00:08;7.00;;;4.70;;
9821;SDS011;4950;46.042;14.472;2023-04-24T00:02:37;7.18;;;4.40;;
9821;SDS011;4950;46.042;14.472;2023-04-24T00:05:05;8.43;;;4.55;;
9821;SDS011;4950;46.042;14.472;2023-04-24T00:07:32;8.80;;;4.90;;
9821;SDS011;4950;46.042;14.472;2023-04-24T00:10:00;11.20;;;4.95;;
9821;SDS011;4950;46.042;14.472;2023-04-24T00:12:26;7.85;;;4.57;;
9821;SDS011;4950;46.042;14.472;2023-04-24T00:14:53;10.32;;;4.50;;
9821;SDS011;4950;46.042;14.472;2023-04-24T00:17:20;7.85;;;5.10;;
9821;SDS011;4950;46.042;14.472;2023-04-24T00:19:48;7.95;;;4.93;;
9821;SDS011;4950;46.042;14.472;2023-04-24T00:22:16;6.25;;;4.20;;
9821;SDS011;4950;46.042;14.472;2023-04-24T00:24:45;7.40;;;4.60;;
9821;SDS011;4950;46.042;14.472;2023-04-24T00:27:12;7.13;;;4.53;;
9821;SDS011;4950;46.042;14.472;2023-04-24T00:29:39;8.95;;;5.07;;
9821;SDS011;4950;46.042;14.472;2023-04-24T00:32:05;7.65;;;4.50;;
9821;SDS011;4950;46.042;14.472;2023-04-24T00:34:32;6.63;;;4.63;;
9821;SDS011;4950;46.042;14.472;2023-04-24T00:37:00;11.00;;;4.90;;
9821;SDS011;4950;46.042;14.472;2023-04-24T00:39:27;7.38;;;4.70;;
9821;SDS011;4950;46.042;14.472;2023-04-24T00:41:54;8.73;;;4.55;;
9821;SDS011;4950;46.042;14.472;2023-04-24T00:44:21;8.05;;;4.90;;
9821;SDS011;4950;46.042;14.472;2023-04-24T00:46:49;6.93;;;4.65;;
9821;SDS011;4950;46.042;14.472;2023-04-24T00:49:19;6.30;;;4.10;;
9821;SDS011;4950;46.042;14.472;2023-04-24T00:51:46;8.60;;;4.75;;
9821;SDS011;4950;46.042;14.472;2023-04-24T00:54:15;6.78;;;4.65;;
9821;SDS011;4950;46.042;14.472;2023-04-24T00:56:42;7.38;;;5.13;;
9821;SDS011;4950;46.042;14.472;2023-04-24T00:59:10;7.97;;;5.03;;
9821;SDS011;4950;46.042;14.472;2023-04-24T01:01:37;8.40;;;5.00;;
9821;SDS011;4950;46.042;14.472;2023-04-24T01:06:35;8.43;;;4.97;;
9821;SDS011;4950;46.042;14.472;2023-04-24T01:09:05;8.52;;;5.15;;
9821;SDS011;4950;46.042;14.472;2023-04-24T01:11:35;8.88;;;5.35;;
9821;SDS011;4950;46.042;14.472;2023-04-24T01:14:03;7.35;;;4.88;;
9821;SDS011;4950;46.042;14.472;2023-04-24T01:16:29;8.75;;;5.75;;
9821;SDS011;4950;46.042;14.472;2023-04-24T01:18:56;9.70;;;5.45;;
9821;SDS011;4950;46.042;14.472;2023-04-24T01:21:23;7.28;;;5.30;;
9821;SDS011;4950;46.042;14.472;2023-04-24T01:23:54;10.32;;;5.47;;
9821;SDS011;4950;46.042;14.472;2023-04-24T01:26:21;9.85;;;5.75;;
9821;SDS011;4950;46.042;14.472;2023-04-24T01:28:50;8.13;;;5.30;;
9821;SDS011;4950;46.042;14.472;2023-04-24T01:31:17;9.88;;;4.80;;
9821;SDS011;4950;46.042;14.472;2023-04-24T01:33:44;8.02;;;4.70;;
9821;SDS011;4950;46.042;14.472;2023-04-24T01:36:11;7.40;;;5.13;;
9821;SDS011;4950;46.042;14.472;2023-04-24T01:38:37;7.78;;;5.07;;
9821;SDS011;4950;46.042;14.472;2023-04-24T01:41:06;10.45;;;5.22;;
9821;SDS011;4950;46.042;14.472;2023-04-24T01:43:33;7.78;;;5.40;;
9821;SDS011;4950;46.042;14.472;2023-04-24T01:45:59;12.38;;;5.15;;
9821;SDS011;4950;46.042;14.472;2023-04-24T01:48:26;8.15;;;4.82;;
9821;SDS011;4950;46.042;14.472;2023-04-24T01:50:53;10.18;;;5.70;;
9821;SDS011;4950;46.042;14.472;2023-04-24T01:53:20;11.90;;;5.85;;
9821;SDS011;4950;46.042;14.472;2023-04-24T01:55:46;9.30;;;5.63;;
9821;SDS011;4950;46.042;14.472;2023-04-24T01:58:15;9.30;;;5.07;;
9821;SDS011;4950;46.042;14.472;2023-04-24T02:00:42;8.60;;;5.43;;
9821;SDS011;4950;46.042;14.472;2023-04-24T02:03:08;6.80;;;4.60;;
9821;SDS011;4950;46.042;14.472;2023-04-24T02:05:35;14.07;;;5.35;;
9821;SDS011;4950;46.042;14.472;2023-04-24T02:08:02;8.73;;;5.78;;
9821;SDS011;4950;46.042;14.472;2023-04-24T02:10:28;7.38;;;5.07;;
9821;SDS011;4950;46.042;14.472;2023-04-24T02:12:55;8.85;;;5.28;;
9821;SDS011;4950;46.042;14.472;2023-04-24T02:15:23;10.70;;;5.72;;
9821;SDS011;4950;46.042;14.472;2023-04-24T02:17:50;8.25;;;4.82;;
9821;SDS011;4950;46.042;14.472;2023-04-24T02:20:16;11.32;;;5.15;;
9821;SDS011;4950;46.042;14.472;2023-04-24T02:22:43;11.15;;;5.30;;
9821;SDS011;4950;46.042;14.472;2023-04-24T02:25:11;7.68;;;4.63;;
9821;SDS011;4950;46.042;14.472;2023-04-24T02:27:38;7.45;;;5.35;;
9821;SDS011;4950;46.042;14.472;2023-04-24T02:30:05;11.10;;;5.15;;
9821;SDS011;4950;46.042;14.472;2023-04-24T02:32:35;14.35;;;5.50;;
9821;SDS011;4950;46.042;14.472;2023-04-24T02:35:01;7.38;;;5.30;;
9821;SDS011;4950;46.042;14.472;2023-04-24T02:37:28;11.48;;;5.35;;
9821;SDS011;4950;46.042;14.472;2023-04-24T02:39:55;7.85;;;4.97;;
9821;SDS011;4950;46.042;14.472;2023-04-24T02:42:21;8.77;;;5.18;;
9821;SDS011;4950;46.042;14.472;2023-04-24T02:44:48;9.13;;;5.88;;
9821;SDS011;4950;46.042;14.472;2023-04-24T02:47:16;13.68;;;5.72;;
9821;SDS011;4950;46.042;14.472;2023-04-24T02:49:44;13.10;;;5.93;;
9821;SDS011;4950;46.042;14.472;2023-04-24T02:52:11;12.23;;;6.13;;
9821;SDS011;4950;46.042;14.472;2023-04-24T02:54:38;13.27;;;5.88;;
9821;SDS011;4950;46.042;14.472;2023-04-24T02:57:04;8.07;;;5.65;;
9821;SDS011;4950;46.042;14.472;2023-04-24T02:59:31;10.23;;;5.50;;
9821;SDS011;4950;46.042;14.472;2023-04-24T03:01:58;10.02;;;5.90;;
9821;SDS011;4950;46.042;14.472;2023-04-24T03:04:25;8.93;;;5.47;;
9821;SDS011;4950;46.042;14.472;2023-04-24T03:06:53;10.18;;;6.20;;
9821;SDS011;4950;46.042;14.472;2023-04-24T03:09:20;11.93;;;5.83;;
9821;SDS011;4950;46.042;14.472;2023-04-24T03:11:47;8.82;;;5.68;;
9821;SDS011;4950;46.042;14.472;2023-04-24T03:14:14;8.43;;;5.72;;
9821;SDS011;4950;46.042;14.472;2023-04-24T03:16:41;9.93;;;5.90;;
9821;SDS011;4950;46.042;14.472;2023-04-24T03:19:08;12.52;;;5.88;;
9821;SDS011;4950;46.042;14.472;2023-04-24T03:21:34;10.30;;;5.90;;
9821;SDS011;4950;46.042;14.472;2023-04-24T03:24:07;10.93;;;6.13;;
9821;SDS011;4950;46.042;14.472;2023-04-24T03:26:33;12.90;;;6.25;;
9821;SDS011;4950;46.042;14.472;2023-04-24T03:29:00;9.50;;;5.95;;
9821;SDS011;4950;46.042;14.472;2023-04-24T03:31:27;11.82;;;6.47;;
9821;SDS011;4950;46.042;14.472;2023-04-24T03:33:54;11.82;;;6.97;;
9821;SDS011;4950;46.042;14.472;2023-04-24T03:36:21;9.30;;;5.55;;
9821;SDS011;4950;46.042;14.472;2023-04-24T03:38:47;10.05;;;6.22;;
9821;SDS011;4950;46.042;14.472;2023-04-24T03:41:16;8.18;;;5.93;;
9821;SDS011;4950;46.042;14.472;2023-04-24T03:43:42;10.10;;;6.65;;
9821;SDS011;4950;46.042;14.472;2023-04-24T03:46:09;12.07;;;6.05;;
9821;SDS011;4950;46.042;14.472;2023-04-24T03:48:36;12.85;;;6.45;;
9821;SDS011;4950;46.042;14.472;2023-04-24T03:51:03;10.35;;;6.43;;
9821;SDS011;4950;46.042;14.472;2023-04-24T03:53:29;9.93;;;6.55;;
9821;SDS011;4950;46.042;14.472;2023-04-24T03:55:56;10.52;;;6.10;;
9821;SDS011;4950;46.042;14.472;2023-04-24T03:58:24;10.02;;;6.65;;
9821;SDS011;4950;46.042;14.472;2023-04-24T04:00:52;10.32;;;6.25;;
9821;SDS011;4950;46.042;14.472;2023-04-24T04:03:23;8.75;;;6.47;;
9821;SDS011;4950;46.042;14.472;2023-04-24T04:05:50;12.77;;;6.90;;
9821;SDS011;4950;46.042;14.472;2023-04-24T04:08:18;11.77;;;6.55;;
9821;SDS011;4950;46.042;14.472;2023-04-24T04:10:45;9.93;;;6.93;;
9821;SDS011;4950;46.042;14.472;2023-04-24T04:13:11;11.82;;;7.40;;
9821;SDS011;4950;46.042;14.472;2023-04-24T04:15:39;9.32;;;6.97;;
9821;SDS011;4950;46.042;14.472;2023-04-24T04:18:06;9.87;;;6.60;;
9821;SDS011;4950;46.042;14.472;2023-04-24T04:20:33;10.77;;;7.28;;
9821;SDS011;4950;46.042;14.472;2023-04-24T04:23:00;12.82;;;6.80;;
9821;SDS011;4950;46.042;14.472;2023-04-24T04:25:27;13.15;;;7.78;;
9821;SDS011;4950;46.042;14.472;2023-04-24T04:27:59;10.32;;;6.95;;
9821;SDS011;4950;46.042;14.472;2023-04-24T04:30:27;10.80;;;6.88;;
9821;SDS011;4950;46.042;14.472;2023-04-24T04:32:56;12.48;;;7.35;;
9821;SDS011;4950;46.042;14.472;2023-04-24T04:35:22;10.75;;;7.30;;
9821;SDS011;4950;46.042;14.472;2023-04-24T04:37:50;10.68;;;7.03;;
9821;SDS011;4950;46.042;14.472;2023-04-24T04:40:16;9.48;;;6.82;;
9821;SDS011;4950;46.042;14.472;2023-04-24T04:42:43;12.98;;;7.05;;
9821;SDS011;4950;46.042;14.472;2023-04-24T04:45:11;9.82;;;6.30;;
9821;SDS011;4950;46.042;14.472;2023-04-24T04:47:37;11.70;;;7.50;;
9821;SDS011;4950;46.042;14.472;2023-04-24T04:50:06;11.18;;;7.05;;
9821;SDS011;4950;46.042;14.472;2023-04-24T04:52:33;13.57;;;7.93;;
9821;SDS011;4950;46.042;14.472;2023-04-24T04:55:00;14.38;;;7.32;;
9821;SDS011;4950;46.042;14.472;2023-04-24T04:57:26;11.23;;;8.10;;
9821;SDS011;4950;46.042;14.472;2023-04-24T04:59:53;12.02;;;7.75;;
9821;SDS011;4950;46.042;14.472;2023-04-24T05:02:20;16.42;;;8.48;;
9821;SDS011;4950;46.042;14.472;2023-04-24T05:04:47;13.13;;;8.38;;
9821;SDS011;4950;46.042;14.472;2023-04-24T05:07:15;11.23;;;7.78;;
9821;SDS011;4950;46.042;14.472;2023-04-24T05:09:41;14.80;;;8.23;;
9821;SDS011;4950;46.042;14.472;2023-04-24T05:12:09;15.63;;;8.35;;
9821;SDS011;4950;46.042;14.472;2023-04-24T05:14:36;11.43;;;8.05;;
9821;SDS011;4950;46.042;14.472;2023-04-24T05:17:03;12.13;;;7.43;;
9821;SDS011;4950;46.042;14.472;2023-04-24T05:19:30;14.57;;;8.52;;
9821;SDS011;4950;46.042;14.472;2023-04-24T05:21:58;15.48;;;8.80;;
9821;SDS011;4950;46.042;14.472;2023-04-24T05:24:29;15.20;;;8.20;;
9821;SDS011;4950;46.042;14.472;2023-04-24T05:26:56;12.10;;;7.85;;
9821;SDS011;4950;46.042;14.472;2023-04-24T05:29:24;12.80;;;8.07;;
9821;SDS011;4950;46.042;14.472;2023-04-24T05:31:51;13.35;;;7.63;;
9821;SDS011;4950;46.042;14.472;2023-04-24T05:34:18;12.93;;;8.00;;
9821;SDS011;4950;46.042;14.472;2023-04-24T05:36:45;10.85;;;8.13;;
9821;SDS011;4950;46.042;14.472;2023-04-24T05:39:12;9.60;;;7.38;;
9821;SDS011;4950;46.042;14.472;2023-04-24T05:41:40;11.82;;;7.55;;
9821;SDS011;4950;46.042;14.472;2023-04-24T05:44:06;16.00;;;7.70;;
9821;SDS011;4950;46.042;14.472;2023-04-24T05:46:33;10.98;;;7.82;;
9821;SDS011;4950;46.042;14.472;2023-04-24T05:49:00;14.80;;;8.60;;
9821;SDS011;4950;46.042;14.472;2023-04-24T05:51:27;14.20;;;7.70;;
9821;SDS011;4950;46.042;14.472;2023-04-24T05:53:53;12.90;;;7.78;;
9821;SDS011;4950;46.042;14.472;2023-04-24T05:56:20;13.95;;;8.02;;
9821;SDS011;4950;46.042;14.472;2023-04-24T05:58:48;12.88;;;8.45;;
9821;SDS011;4950;46.042;14.472;2023-04-24T06:01:15;13.60;;;9.05;;
9821;SDS011;4950;46.042;14.472;2023-04-24T06:03:42;16.27;;;8.40;;
9821;SDS011;4950;46.042;14.472;2023-04-24T06:06:09;16.23;;;8.43;;
9821;SDS011;4950;46.042;14.472;2023-04-24T06:08:35;16.33;;;8.88;;
9821;SDS011;4950;46.042;14.472;2023-04-24T06:11:02;11.88;;;8.05;;
9821;SDS011;4950;46.042;14.472;2023-04-24T06:13:29;15.40;;;8.07;;
9821;SDS011;4950;46.042;14.472;2023-04-24T06:15:57;13.25;;;7.82;;
9821;SDS011;4950;46.042;14.472;2023-04-24T06:18:24;13.60;;;7.97;;
9821;SDS011;4950;46.042;14.472;2023-04-24T06:20:50;16.10;;;7.10;;
9821;SDS011;4950;46.042;14.472;2023-04-24T06:23:17;14.85;;;8.07;;
9821;SDS011;4950;46.042;14.472;2023-04-24T06:25:44;12.40;;;7.43;;
9821;SDS011;4950;46.042;14.472;2023-04-24T06:28:10;11.85;;;7.32;;
9821;SDS011;4950;46.042;14.472;2023-04-24T06:30:37;13.13;;;7.82;;
9821;SDS011;4950;46.042;14.472;2023-04-24T06:33:05;16.90;;;8.10;;
9821;SDS011;4950;46.042;14.472;2023-04-24T06:35:32;11.05;;;7.50;;
9821;SDS011;4950;46.042;14.472;2023-04-24T06:37:59;13.43;;;7.00;;
9821;SDS011;4950;46.042;14.472;2023-04-24T06:40:25;12.02;;;7.82;;
9821;SDS011;4950;46.042;14.472;2023-04-24T06:42:52;11.68;;;8.07;;
9821;SDS011;4950;46.042;14.472;2023-04-24T06:45:19;20.27;;;12.63;;
9821;SDS011;4950;46.042;14.472;2023-04-24T06:47:46;24.27;;;9.35;;
9821;SDS011;4950;46.042;14.472;2023-04-24T06:50:14;19.90;;;8.95;;
9821;SDS011;4950;46.042;14.472;2023-04-24T06:52:41;15.30;;;8.55;;
9821;SDS011;4950;46.042;14.472;2023-04-24T06:55:08;11.43;;;8.48;;
9821;SDS011;4950;46.042;14.472;2023-04-24T06:57:36;12.50;;;8.10;;
9821;SDS011;4950;46.042;14.472;2023-04-24T07:00:03;12.98;;;8.35;;
9821;SDS011;4950;46.042;14.472;2023-04-24T07:02:31;20.50;;;9.02;;
9821;SDS011;4950;46.042;14.472;2023-04-24T07:04:58;14.25;;;8.57;;
9821;SDS011;4950;46.042;14.472;2023-04-24T07:07:27;14.73;;;8.13;;
9821;SDS011;4950;46.042;14.472;2023-04-24T07:09:54;15.88;;;8.65;;
9821;SDS011;4950;46.042;14.472;2023-04-24T07:12:21;17.20;;;9.57;;
9821;SDS011;4950;46.042;14.472;2023-04-24T07:14:48;20.88;;;10.57;;
9821;SDS011;4950;46.042;14.472;2023-04-24T07:17:14;15.30;;;8.82;;
9821;SDS011;4950;46.042;14.472;2023-04-24T07:19:41;14.15;;;8.45;;
9821;SDS011;4950;46.042;14.472;2023-04-24T07:22:08;20.75;;;8.93;;
9821;SDS011;4950;46.042;14.472;2023-04-24T07:24:37;12.88;;;7.88;;
9821;SDS011;4950;46.042;14.472;2023-04-24T07:27:04;11.30;;;7.90;;
9821;SDS011;4950;46.042;14.472;2023-04-24T07:29:31;10.75;;;7.45;;
9821;SDS011;4950;46.042;14.472;2023-04-24T07:31:58;11.07;;;8.18;;
9821;SDS011;4950;46.042;14.472;2023-04-24T07:34:25;13.93;;;7.80;;
9821;SDS011;4950;46.042;14.472;2023-04-24T07:36:51;12.98;;;7.10;;
9821;SDS011;4950;46.042;14.472;2023-04-24T07:39:18;11.57;;;7.53;;
9821;SDS011;4950;46.042;14.472;2023-04-24T07:41:47;10.73;;;6.97;;
9821;SDS011;4950;46.042;14.472;2023-04-24T07:44:13;13.43;;;7.43;;
9821;SDS011;4950;46.042;14.472;2023-04-24T07:46:40;11.70;;;6.47;;
9821;SDS011;4950;46.042;14.472;2023-04-24T07:49:07;11.88;;;7.00;;
9821;SDS011;4950;46.042;14.472;2023-04-24T07:51:34;14.30;;;8.55;;
9821;SDS011;4950;46.042;14.472;2023-04-24T07:54:03;12.40;;;6.90;;
9821;SDS011;4950;46.042;14.472;2023-04-24T07:56:30;11.52;;;6.53;;
9821;SDS011;4950;46.042;14.472;2023-04-24T07:58:58;10.02;;;6.05;;
9821;SDS011;4950;46.042;14.472;2023-04-24T08:01:26;10.68;;;6.00;;
9821;SDS011;4950;46.042;14.472;2023-04-24T08:03:52;11.02;;;6.28;;
9821;SDS011;4950;46.042;14.472;2023-04-24T08:06:19;9.10;;;5.70;;
9821;SDS011;4950;46.042;14.472;2023-04-24T08:08:46;10.75;;;6.45;;
9821;SDS011;4950;46.042;14.472;2023-04-24T08:11:13;10.95;;;6.30;;
9821;SDS011;4950;46.042;14.472;2023-04-24T08:13:39;14.30;;;6.60;;
9821;SDS011;4950;46.042;14.472;2023-04-24T08:16:07;12.02;;;6.20;;
9821;SDS011;4950;46.042;14.472;2023-04-24T08:18:34;12.52;;;6.03;;
9821;SDS011;4950;46.042;14.472;2023-04-24T08:21:01;8.18;;;5.72;;
9821;SDS011;4950;46.042;14.472;2023-04-24T08:23:28;10.52;;;7.03;;
9821;SDS011;4950;46.042;14.472;2023-04-24T08:25:55;16.55;;;7.10;;
9821;SDS011;4950;46.042;14.472;2023-04-24T08:28:22;9.93;;;5.97;;
9821;SDS011;4950;46.042;14.472;2023-04-24T08:30:49;9.90;;;5.97;;
9821;SDS011;4950;46.042;14.472;2023-04-24T08:33:21;12.85;;;6.07;;
9821;SDS011;4950;46.042;14.472;2023-04-24T08:35:48;9.23;;;5.35;;
9821;SDS011;4950;46.042;14.472;2023-04-24T08:38:15;11.00;;;5.53;;
9821;SDS011;4950;46.042;14.472;2023-04-24T08:40:42;15.48;;;5.70;;
9821;SDS011;4950;46.042;14.472;2023-04-24T08:43:11;12.50;;;6.05;;
9821;SDS011;4950;46.042;14.472;2023-04-24T08:45:38;13.70;;;6.43;;
9821;SDS011;4950;46.042;14.472;2023-04-24T08:48:05;11.82;;;6.00;;
9821;SDS011;4950;46.042;14.472;2023-04-24T08:50:34;13.27;;;5.80;;
9821;SDS011;4950;46.042;14.472;2023-04-24T08:53:02;10.73;;;6.22;;
9821;SDS011;4950;46.042;14.472;2023-04-24T08:55:28;10.13;;;5.35;;
9821;SDS011;4950;46.042;14.472;2023-04-24T08:57:57;9.20;;;5.07;;
9821;SDS011;4950;46.042;14.472;2023-04-24T09:00:25;9.13;;;5.27;;
9821;SDS011;4950;46.042;14.472;2023-04-24T09:02:53;8.50;;;4.95;;
9821;SDS011;4950;46.042;14.472;2023-04-24T09:05:20;10.63;;;5.95;;
9821;SDS011;4950;46.042;14.472;2023-04-24T09:07:52;9.90;;;5.40;;
9821;SDS011;4950;46.042;14.472;2023-04-24T09:10:21;11.68;;;6.15;;
9821;SDS011;4950;46.042;14.472;2023-04-24T09:12:48;7.97;;;5.13;;
9821;SDS011;4950;46.042;14.472;2023-04-24T09:15:16;9.75;;;5.63;;
9821;SDS011;4950;46.042;14.472;2023-04-24T09:17:45;12.10;;;6.40;;
9821;SDS011;4950;46.042;14.472;2023-04-24T09:20:12;12.27;;;6.13;;
9821;SDS011;4950;46.042;14.472;2023-04-24T09:22:39;9.07;;;5.75;;
9821;SDS011;4950;46.042;14.472;2023-04-24T09:25:07;10.65;;;6.05;;
9821;SDS011;4950;46.042;14.472;2023-04-24T09:27:37;11.85;;;6.15;;
9821;SDS011;4950;46.042;14.472;2023-04-24T09:30:09;8.13;;;5.63;;
9821;SDS011;4950;46.042;14.472;2023-04-24T09:32:36;14.90;;;8.32;;
9821;SDS011;4950;46.042;14.472;2023-04-24T09:35:10;21.27;;;13.18;;
9821;SDS011;4950;46.042;14.472;2023-04-24T09:37:39;17.10;;;9.88;;
9821;SDS011;4950;46.042;14.472;2023-04-24T09:40:17;12.77;;;8.32;;
9821;SDS011;4950;46.042;14.472;2023-04-24T09:42:46;14.75;;;7.07;;
9821;SDS011;4950;46.042;14.472;2023-04-24T09:45:18;12.27;;;7.30;;
9821;SDS011;4950;46.042;14.472;2023-04-24T09:47:45;12.48;;;6.00;;
9821;SDS011;4950;46.042;14.472;2023-04-24T09:50:13;9.45;;;5.97;;
9821;SDS011;4950;46.042;14.472;2023-04-24T09:52:43;9.52;;;5.82;;
9821;SDS011;4950;46.042;14.472;2023-04-24T09:55:12;11.32;;;6.32;;
9821;SDS011;4950;46.042;14.472;2023-04-24T09:57:54;13.95;;;6.40;;
9821;SDS011;4950;46.042;14.472;2023-04-24T10:00:22;10.90;;;6.40;;
9821;SDS011;4950;46.042;14.472;2023-04-24T10:02:54;12.57;;;7.97;;
9821;SDS011;4950;46.042;14.472;2023-04-24T10:05:23;12.57;;;6.78;;
9821;SDS011;4950;46.042;14.472;2023-04-24T10:07:50;12.93;;;6.60;;
9821;SDS011;4950;46.042;14.472;2023-04-24T10:10:17;8.95;;;5.32;;
9821;SDS011;4950;46.042;14.472;2023-04-24T10:12:44;12.18;;;7.13;;
9821;SDS011;4950;46.042;14.472;2023-04-24T10:15:12;13.55;;;8.20;;
9821;SDS011;4950;46.042;14.472;2023-04-24T10:17:40;9.73;;;6.50;;
9821;SDS011;4950;46.042;14.472;2023-04-24T10:20:07;13.18;;;8.05;;
9821;SDS011;4950;46.042;14.472;2023-04-24T10:22:34;22.17;;;13.10;;
9821;SDS011;4950;46.042;14.472;2023-04-24T10:25:03;18.10;;;10.55;;
9821;SDS011;4950;46.042;14.472;2023-04-24T10:27:32;13.68;;;9.05;;
9821;SDS011;4950;46.042;14.472;2023-04-24T10:29:58;14.45;;;8.10;;
9821;SDS011;4950;46.042;14.472;2023-04-24T10:32:29;14.52;;;6.28;;
9821;SDS011;4950;46.042;14.472;2023-04-24T10:34:56;11.10;;;6.27;;
9821;SDS011;4950;46.042;14.472;2023-04-24T10:37:23;10.02;;;6.60;;
9821;SDS011;4950;46.042;14.472;2023-04-24T10:39:51;12.82;;;7.18;;
9821;SDS011;4950;46.042;14.472;2023-04-24T10:42:19;21.42;;;10.80;;
9821;SDS011;4950;46.042;14.472;2023-04-24T10:44:47;15.98;;;9.65;;
9821;SDS011;4950;46.042;14.472;2023-04-24T10:47:14;13.23;;;9.32;;
9821;SDS011;4950;46.042;14.472;2023-04-24T10:49:42;16.83;;;9.40;;
9821;SDS011;4950;46.042;14.472;2023-04-24T10:52:09;15.23;;;9.60;;
9821;SDS011;4950;46.042;14.472;2023-04-24T10:54:40;14.20;;;8.40;;
9821;SDS011;4950;46.042;14.472;2023-04-24T10:57:27;19.10;;;10.20;;
9821;SDS011;4950;46.042;14.472;2023-04-24T11:00:10;17.02;;;8.70;;
9821;SDS011;4950;46.042;14.472;2023-04-24T11:02:41;20.70;;;11.73;;
9821;SDS011;4950;46.042;14.472;2023-04-24T11:05:15;17.52;;;9.82;;
9821;SDS011;4950;46.042;14.472;2023-04-24T11:10:27;10.50;;;6.82;;
9821;SDS011;4950;46.042;14.472;2023-04-24T11:12:54;11.75;;;5.88;;
9821;SDS011;4950;46.042;14.472;2023-04-24T11:17:49;8.60;;;5.70;;
9821;SDS011;4950;46.042;14.472;2023-04-24T11:20:23;10.80;;;6.63;;
9821;SDS011;4950;46.042;14.472;2023-04-24T11:22:52;12.52;;;5.50;;
9821;SDS011;4950;46.042;14.472;2023-04-24T11:25:22;9.93;;;5.90;;
9821;SDS011;4950;46.042;14.472;2023-04-24T11:27:50;14.52;;;6.68;;
9821;SDS011;4950;46.042;14.472;2023-04-24T11:30:29;19.30;;;7.63;;
9821;SDS011;4950;46.042;14.472;2023-04-24T11:32:56;15.32;;;7.28;;
9821;SDS011;4950;46.042;14.472;2023-04-24T11:35:30;12.88;;;6.30;;
9821;SDS011;4950;46.042;14.472;2023-04-24T11:38:02;12.55;;;7.47;;
9821;SDS011;4950;46.042;14.472;2023-04-24T11:40:30;13.57;;;7.15;;
9821;SDS011;4950;46.042;14.472;2023-04-24T11:42:59;10.75;;;6.18;;
9821;SDS011;4950;46.042;14.472;2023-04-24T11:45:26;11.98;;;5.85;;
9821;SDS011;4950;46.042;14.472;2023-04-24T11:47:54;10.02;;;5.63;;
9821;SDS011;4950;46.042;14.472;2023-04-24T11:50:21;8.68;;;5.65;;
9821;SDS011;4950;46.042;14.472;2023-04-24T11:52:52;10.95;;;5.82;;
9821;SDS011;4950;46.042;14.472;2023-04-24T11:55:25;11.93;;;6.30;;
9821;SDS011;4950;46.042;14.472;2023-04-24T11:57:54;9.18;;;5.57;;
9821;SDS011;4950;46.042;14.472;2023-04-24T12:00:23;11.75;;;6.28;;
9821;SDS011;4950;46.042;14.472;2023-04-24T12:02:50;11.00;;;6.53;;
9821;SDS011;4950;46.042;14.472;2023-04-24T12:05:21;10.80;;;6.15;;
9821;SDS011;4950;46.042;14.472;2023-04-24T12:07:49;11.82;;;7.07;;
9821;SDS011;4950;46.042;14.472;2023-04-24T12:10:20;14.45;;;6.93;;
9821;SDS011;4950;46.042;14.472;2023-04-24T12:12:48;10.77;;;6.40;;
9821;SDS011;4950;46.042;14.472;2023-04-24T12:15:16;11.93;;;6.95;;
9821;SDS011;4950;46.042;14.472;2023-04-24T12:17:43;12.27;;;7.10;;
9821;SDS011;4950;46.042;14.472;2023-04-24T12:20:11;16.08;;;7.53;;
9821;SDS011;4950;46.042;14.472;2023-04-24T12:22:45;13.60;;;7.20;;
9821;SDS011;4950;46.042;14.472;2023-04-24T12:25:13;11.00;;;7.18;;
9821;SDS011;4950;46.042;14.472;2023-04-24T12:27:42;13.38;;;6.93;;
9821;SDS011;4950;46.042;14.472;2023-04-24T12:32:40;10.17;;;6.27;;
9821;SDS011;4950;46.042;14.472;2023-04-24T12:35:08;10.85;;;6.25;;
9821;SDS011;4950;46.042;14.472;2023-04-24T12:37:35;11.20;;;7.07;;
9821;SDS011;4950;46.042;14.472;2023-04-24T12:40:03;10.70;;;5.97;;
9821;SDS011;4950;46.042;14.472;2023-04-24T12:42:32;14.93;;;8.55;;
9821;SDS011;4950;46.042;14.472;2023-04-24T12:45:01;13.23;;;7.70;;
9821;SDS011;4950;46.042;14.472;2023-04-24T12:47:30;10.52;;;6.70;;
9821;SDS011;4950;46.042;14.472;2023-04-24T12:49:58;10.30;;;6.82;;
9821;SDS011;4950;46.042;14.472;2023-04-24T12:52:25;11.18;;;6.10;;
9821;SDS011;4950;46.042;14.472;2023-04-24T12:54:52;11.10;;;6.43;;
9821;SDS011;4950;46.042;14.472;2023-04-24T12:57:20;10.05;;;5.93;;
9821;SDS011;4950;46.042;14.472;2023-04-24T12:59:47;10.95;;;6.88;;
9821;SDS011;4950;46.042;14.472;2023-04-24T13:02:15;10.02;;;5.88;;
9821;SDS011;4950;46.042;14.472;2023-04-24T13:04:43;9.75;;;6.50;;
9821;SDS011;4950;46.042;14.472;2023-04-24T13:07:11;9.10;;;5.87;;
9821;SDS011;4950;46.042;14.472;2023-04-24T13:09:38;12.57;;;5.75;;
9821;SDS011;4950;46.042;14.472;2023-04-24T13:12:05;9.95;;;6.22;;
9821;SDS011;4950;46.042;14.472;2023-04-24T13:14:31;13.43;;;7.75;;
9821;SDS011;4950;46.042;14.472;2023-04-24T13:16:59;13.15;;;6.45;;
9821;SDS011;4950;46.042;14.472;2023-04-24T13:19:27;8.23;;;5.10;;
9821;SDS011;4950;46.042;14.472;2023-04-24T13:21:55;8.70;;;5.13;;
9821;SDS011;4950;46.042;14.472;2023-04-24T13:24:24;10.88;;;5.28;;
9821;SDS011;4950;46.042;14.472;2023-04-24T13:26:51;8.48;;;4.40;;
9821;SDS011;4950;46.042;14.472;2023-04-24T13:29:17;10.20;;;4.00;;
9821;SDS011;4950;46.042;14.472;2023-04-24T13:31:45;8.55;;;3.80;;
9821;SDS011;4950;46.042;14.472;2023-04-24T13:34:12;8.27;;;4.10;;
9821;SDS011;4950;46.042;14.472;2023-04-24T13:36:40;6.40;;;3.33;;
9821;SDS011;4950;46.042;14.472;2023-04-24T13:39:07;5.90;;;3.15;;
9821;SDS011;4950;46.042;14.472;2023-04-24T13:41:34;6.20;;;3.10;;
9821;SDS011;4950;46.042;14.472;2023-04-24T13:44:01;5.65;;;3.53;;
9821;SDS011;4950;46.042;14.472;2023-04-24T13:46:28;6.13;;;3.28;;
9821;SDS011;4950;46.042;14.472;2023-04-24T13:48:54;10.27;;;3.80;;
9821;SDS011;4950;46.042;14.472;2023-04-24T13:51:22;7.10;;;3.92;;
9821;SDS011;4950;46.042;14.472;2023-04-24T13:53:50;8.05;;;4.07;;
9821;SDS011;4950;46.042;14.472;2023-04-24T13:56:17;9.30;;;4.15;;
9821;SDS011;4950;46.042;14.472;2023-04-24T13:58:43;8.75;;;4.18;;
9821;SDS011;4950;46.042;14.472;2023-04-24T14:01:10;11.10;;;5.38;;
9821;SDS011;4950;46.042;14.472;2023-04-24T14:03:37;7.10;;;4.25;;
9821;SDS011;4950;46.042;14.472;2023-04-24T14:06:04;7.25;;;4.15;;
9821;SDS011;4950;46.042;14.472;2023-04-24T14:08:31;7.45;;;3.67;;
9821;SDS011;4950;46.042;14.472;2023-04-24T14:11:00;5.13;;;3.25;;
9821;SDS011;4950;46.042;14.472;2023-04-24T14:13:27;7.43;;;3.70;;
9821;SDS011;4950;46.042;14.472;2023-04-24T14:15:55;5.32;;;3.30;;
9821;SDS011;4950;46.042;14.472;2023-04-24T14:18:21;7.50;;;3.70;;
9821;SDS011;4950;46.042;14.472;2023-04-24T14:20:48;6.18;;;3.60;;
9821;SDS011;4950;46.042;14.472;2023-04-24T14:23:15;8.32;;;3.60;;
9821;SDS011;4950;46.042;14.472;2023-04-24T14:25:43;5.93;;;2.78;;
9821;SDS011;4950;46.042;14.472;2023-04-24T14:28:12;4.43;;;2.70;;
9821;SDS011;4950;46.042;14.472;2023-04-24T14:30:39;7.57;;;3.20;;
9821;SDS011;4950;46.042;14.472;2023-04-24T14:33:05;6.05;;;3.38;;
9821;SDS011;4950;46.042;14.472;2023-04-24T14:35:32;10.93;;;5.60;;
9821;SDS011;4950;46.042;14.472;2023-04-24T14:38:00;8.07;;;4.05;;
9821;SDS011;4950;46.042;14.472;2023-04-24T14:40:27;6.95;;;3.28;;
9821;SDS011;4950;46.042;14.472;2023-04-24T14:42:54;6.60;;;3.47;;
9821;SDS011;4950;46.042;14.472;2023-04-24T14:45:23;7.93;;;3.38;;
9821;SDS011;4950;46.042;14.472;2023-04-24T14:47:50;4.95;;;2.60;;
9821;SDS011;4950;46.042;14.472;2023-04-24T14:50:17;4.38;;;2.55;;
9821;SDS011;4950;46.042;14.472;2023-04-24T14:52:43;6.25;;;3.63;;
9821;SDS011;4950;46.042;14.472;2023-04-24T14:55:11;7.75;;;3.58;;
9821;SDS011;4950;46.042;14.472;2023-04-24T14:57:38;7.65;;;3.72;;
9821;SDS011;4950;46.042;14.472;2023-04-24T15:00:05;5.68;;;2.95;;
9821;SDS011;4950;46.042;14.472;2023-04-24T15:02:35;6.87;;;3.17;;
9821;SDS011;4950;46.042;14.472;2023-04-24T15:05:05;4.15;;;2.58;;